createdAt,value
2022-11-19T00:01:28.655Z,0.40
2022-11-19T00:03:56.393Z,0.34
2022-11-19T00:06:26.464Z,0.35
2022-11-19T00:08:54.504Z,0.34
2022-11-19T00:11:46.332Z,0.32
2022-11-19T00:14:15.351Z,0.27
2022-11-19T00:16:43.878Z,0.27
2022-11-19T00:19:12.053Z,0.29
2022-11-19T00:21:38.975Z,0.27
2022-11-19T00:24:06.587Z,0.24
2022-11-19T00:26:33.662Z,0.22
2022-11-19T00:29:00.736Z,0.23
2022-11-19T00:31:27.717Z,0.22
2022-11-19T00:33:55.075Z,0.21
2022-11-19T00:36:23.213Z,0.20
2022-11-19T00:38:50.796Z,0.15
2022-11-19T00:41:18.220Z,0.14
2022-11-19T00:43:48.349Z,0.12
2022-11-19T00:46:28.661Z,0.08
2022-11-19T00:48:58.890Z,0.07
2022-11-19T00:51:29.273Z,0.00
2022-11-19T00:53:56.664Z,0.00
2022-11-19T00:56:26.352Z,-0.05
2022-11-19T00:58:54.609Z,-0.07
2022-11-19T01:01:24.673Z,-0.11
2022-11-19T01:03:53.581Z,-0.18
2022-11-19T01:06:24.426Z,-0.22
2022-11-19T01:08:53.118Z,-0.26
2022-11-19T01:11:24.773Z,-0.35
2022-11-19T01:13:52.189Z,-0.33
2022-11-19T01:16:25.211Z,-0.35
2022-11-19T01:18:53.120Z,-0.40
2022-11-19T01:21:25.363Z,-0.44
2022-11-19T01:23:52.698Z,-0.46
2022-11-19T01:26:20.039Z,-0.48
2022-11-19T01:28:47.575Z,-0.52
2022-11-19T01:31:27.842Z,-0.55
2022-11-19T01:33:55.446Z,-0.54
2022-11-19T01:36:26.633Z,-0.57
2022-11-19T01:38:54.576Z,-0.61
2022-11-19T01:41:31.110Z,-0.64
2022-11-19T01:44:06.726Z,-0.69
2022-11-19T01:46:38.469Z,-0.69
2022-11-19T01:49:19.312Z,-0.72
2022-11-19T01:51:54.316Z,-0.74
2022-11-19T01:54:30.262Z,-0.78
2022-11-19T01:57:02.489Z,-0.81
2022-11-19T01:59:31.300Z,-0.82
2022-11-19T02:01:58.205Z,-0.82
2022-11-19T02:04:27.818Z,-0.84
2022-11-19T02:06:55.677Z,-0.86
2022-11-19T02:09:23.746Z,-0.89
2022-11-19T02:12:13.064Z,-0.89
2022-11-19T02:14:53.537Z,-0.90
2022-11-19T02:18:15.336Z,-0.93
2022-11-19T02:21:19.946Z,-0.96
2022-11-19T02:24:00.229Z,-1.01
2022-11-19T02:26:29.976Z,-1.09
2022-11-19T02:29:10.139Z,-1.08
2022-11-19T02:31:57.989Z,-1.12
2022-11-19T02:34:52.298Z,-1.19
2022-11-19T02:37:27.824Z,-1.21
2022-11-19T02:40:09.775Z,-1.21
2022-11-19T02:43:03.375Z,-1.23
2022-11-19T02:45:59.266Z,-1.22
2022-11-19T02:48:34.639Z,-1.23
2022-11-19T02:51:04.627Z,-1.26
2022-11-19T02:53:32.802Z,-1.27
2022-11-19T02:56:13.970Z,-1.28
2022-11-19T02:59:10.229Z,-1.34
2022-11-19T03:02:00.910Z,-1.35
2022-11-19T03:04:29.730Z,-1.34
2022-11-19T03:07:05.388Z,-1.36
2022-11-19T03:09:34.800Z,-1.38
2022-11-19T03:12:47.853Z,-1.40
2022-11-19T03:16:05.604Z,-1.43
2022-11-19T03:18:40.254Z,-1.43
2022-11-19T03:21:15.808Z,-1.44
2022-11-19T03:23:56.574Z,-1.45
2022-11-19T03:26:39.621Z,-1.45
2022-11-19T03:29:11.572Z,-1.49
2022-11-19T03:31:44.344Z,-1.49
2022-11-19T03:34:17.966Z,-1.56
2022-11-19T03:36:48.166Z,-1.58
2022-11-19T03:39:19.404Z,-1.57
2022-11-19T03:41:49.397Z,-1.58
2022-11-19T03:44:24.485Z,-1.58
2022-11-19T03:47:01.136Z,-1.60
2022-11-19T03:49:33.790Z,-1.63
2022-11-19T03:52:11.144Z,-1.64
2022-11-19T03:54:39.957Z,-1.69
2022-11-19T03:57:09.873Z,-1.68
2022-11-19T03:59:36.905Z,-1.67
2022-11-19T04:02:08.697Z,-1.69
2022-11-19T04:04:37.271Z,-1.74
2022-11-19T04:07:14.545Z,-1.72
2022-11-19T04:09:42.460Z,-1.76
2022-11-19T04:12:19.130Z,-1.78
2022-11-19T04:14:47.142Z,-1.75
2022-11-19T04:17:15.304Z,-1.78
2022-11-19T04:19:42.428Z,-1.80
2022-11-19T04:22:09.599Z,-1.85
2022-11-19T04:24:36.660Z,-1.87
2022-11-19T04:27:03.985Z,-1.88
2022-11-19T04:29:30.955Z,-1.85
2022-11-19T04:31:57.908Z,-1.89
2022-11-19T04:34:24.931Z,-1.90
2022-11-19T04:36:51.979Z,-1.91
2022-11-19T04:39:19.265Z,-1.91
2022-11-19T04:41:46.389Z,-1.90
2022-11-19T04:44:13.533Z,-1.95
2022-11-19T04:46:40.458Z,-1.93
2022-11-19T04:49:07.435Z,-1.95
2022-11-19T04:51:34.323Z,-1.93
2022-11-19T04:54:01.359Z,-1.96
2022-11-19T04:56:28.422Z,-1.98
2022-11-19T04:58:55.432Z,-1.98
2022-11-19T05:01:22.584Z,-1.97
2022-11-19T05:03:50.688Z,-1.93
2022-11-19T05:06:17.741Z,-1.97
2022-11-19T05:08:44.966Z,-1.97
2022-11-19T05:11:12.310Z,-1.95
2022-11-19T05:13:39.517Z,-1.95
2022-11-19T05:16:06.613Z,-1.97
2022-11-19T05:18:33.586Z,-2.03
2022-11-19T05:21:00.663Z,-1.98
2022-11-19T05:23:27.709Z,-2.00
2022-11-19T05:25:54.653Z,-2.02
2022-11-19T05:28:32.790Z,-2.01
2022-11-19T05:31:04.925Z,-2.03
2022-11-19T05:33:34.307Z,-2.05
2022-11-19T05:36:02.584Z,-2.05
2022-11-19T05:38:29.880Z,-2.10
2022-11-19T05:40:56.889Z,-2.10
2022-11-19T05:43:23.816Z,-2.09
2022-11-19T05:45:50.772Z,-2.10
2022-11-19T05:48:17.672Z,-2.12
2022-11-19T05:50:44.698Z,-2.18
2022-11-19T05:53:11.700Z,-2.22
2022-11-19T05:55:38.680Z,-2.19
2022-11-19T05:58:05.588Z,-2.21
2022-11-19T06:00:32.610Z,-2.26
2022-11-19T06:02:59.561Z,-2.28
2022-11-19T06:05:26.548Z,-2.30
2022-11-19T06:07:53.613Z,-2.30
2022-11-19T06:10:20.582Z,-2.32
2022-11-19T06:12:47.683Z,-2.33
2022-11-19T06:15:15.344Z,-2.32
2022-11-19T06:17:42.933Z,-2.34
2022-11-19T06:20:11.161Z,-2.37
2022-11-19T06:22:38.861Z,-2.37
2022-11-19T06:25:07.770Z,-2.35
2022-11-19T06:27:34.943Z,-2.37
2022-11-19T06:30:02.433Z,-2.36
2022-11-19T06:32:29.502Z,-2.37
2022-11-19T06:34:56.454Z,-2.40
2022-11-19T06:37:24.061Z,-2.40
2022-11-19T06:39:51.084Z,-2.39
2022-11-19T06:42:36.078Z,-2.41
2022-11-19T06:45:09.348Z,-2.37
2022-11-19T06:47:37.063Z,-2.38
2022-11-19T06:50:06.355Z,-2.44
2022-11-19T06:52:33.381Z,-2.44
2022-11-19T06:55:00.620Z,-2.46
2022-11-19T06:57:30.810Z,-2.54
2022-11-19T07:00:01.463Z,-2.55
2022-11-19T07:02:29.283Z,-2.69
2022-11-19T07:04:56.802Z,-2.92
2022-11-19T07:07:30.471Z,-2.56
2022-11-19T07:09:58.392Z,-2.90
2022-11-19T07:12:28.620Z,-2.68
2022-11-19T07:15:03.975Z,-2.93
2022-11-19T07:17:35.595Z,-2.58
2022-11-19T07:20:02.728Z,-2.64
2022-11-19T07:22:29.631Z,-2.56
2022-11-19T07:24:56.688Z,-2.56
2022-11-19T07:27:23.626Z,-2.58
2022-11-19T07:29:50.650Z,-2.60
2022-11-19T07:32:17.577Z,-2.61
2022-11-19T07:34:44.651Z,-2.61
2022-11-19T07:37:11.610Z,-2.56
2022-11-19T07:39:38.595Z,-2.54
2022-11-19T07:42:24.372Z,-2.55
2022-11-19T07:44:54.929Z,-2.55
2022-11-19T07:47:22.238Z,-2.49
2022-11-19T07:49:49.160Z,-2.48
2022-11-19T07:52:16.533Z,-2.44
2022-11-19T07:54:43.415Z,-2.40
2022-11-19T07:57:11.912Z,-2.38
2022-11-19T07:59:38.829Z,-2.35
2022-11-19T08:02:06.440Z,-2.33
2022-11-19T08:04:33.422Z,-2.35
2022-11-19T08:07:01.370Z,-2.33
2022-11-19T08:09:28.275Z,-2.27
2022-11-19T08:11:55.273Z,-2.24
2022-11-19T08:14:22.175Z,-2.19
2022-11-19T08:17:08.420Z,-2.13
2022-11-19T08:19:35.691Z,-2.08
2022-11-19T08:22:02.572Z,-2.03
2022-11-19T08:24:29.845Z,-1.98
2022-11-19T08:26:56.829Z,-1.95
2022-11-19T08:29:23.984Z,-1.93
2022-11-19T08:31:51.597Z,-1.88
2022-11-19T08:34:18.993Z,-1.85
2022-11-19T08:36:46.151Z,-1.77
2022-11-19T08:39:13.157Z,-1.72
2022-11-19T08:41:58.925Z,-1.61
2022-11-19T08:44:25.909Z,-1.54
2022-11-19T08:46:52.797Z,-1.44
2022-11-19T08:49:19.958Z,-1.36
2022-11-19T08:51:49.663Z,-1.29
2022-11-19T08:54:17.085Z,-1.25
2022-11-19T08:56:44.386Z,-1.15
2022-11-19T08:59:11.351Z,-1.05
2022-11-19T09:01:38.268Z,-0.95
2022-11-19T09:04:05.646Z,-0.81
2022-11-19T09:06:35.569Z,-0.66
2022-11-19T09:09:04.335Z,-0.48
2022-11-19T09:11:31.546Z,-0.35
2022-11-19T09:13:59.447Z,-0.21
2022-11-19T09:16:26.515Z,0.03
2022-11-19T09:18:53.657Z,0.20
2022-11-19T09:21:20.588Z,0.31
2022-11-19T09:23:47.615Z,0.39
2022-11-19T09:26:19.371Z,0.47
2022-11-19T09:28:46.608Z,0.58
2022-11-19T09:31:17.645Z,0.77
2022-11-19T09:33:49.309Z,0.86
2022-11-19T09:36:17.681Z,0.96
2022-11-19T09:38:45.594Z,1.19
2022-11-19T09:41:50.528Z,1.44
2022-11-19T09:45:01.325Z,1.61
2022-11-19T09:47:56.208Z,1.78
2022-11-19T09:50:27.008Z,1.84
2022-11-19T09:52:58.842Z,1.87
2022-11-19T09:55:45.137Z,1.93
2022-11-19T09:58:30.600Z,2.07
2022-11-19T10:00:59.453Z,2.14
2022-11-19T10:03:33.088Z,2.26
2022-11-19T10:06:12.089Z,2.45
2022-11-19T10:09:16.762Z,2.62
2022-11-19T10:12:04.057Z,2.68
2022-11-19T10:14:48.531Z,2.75
2022-11-19T10:17:30.434Z,2.88
2022-11-19T10:20:34.429Z,3.05
2022-11-19T10:23:25.406Z,3.25
2022-11-19T10:26:02.897Z,3.44
2022-11-19T10:28:36.479Z,3.57
2022-11-19T10:31:17.000Z,3.55
2022-11-19T10:34:06.110Z,3.54
2022-11-19T10:36:41.964Z,4.15
2022-11-19T10:39:46.276Z,5.15
2022-11-19T10:42:36.343Z,5.79
2022-11-19T10:45:31.193Z,6.45
2022-11-19T10:48:21.006Z,6.88
2022-11-19T10:50:48.222Z,6.68
2022-11-19T10:53:38.659Z,6.39
2022-11-19T10:56:13.862Z,6.06
2022-11-19T10:58:50.555Z,5.67
2022-11-19T11:01:30.192Z,5.38
2022-11-19T11:04:18.943Z,5.30
2022-11-19T11:06:56.719Z,5.32
2022-11-19T11:09:32.377Z,5.31
2022-11-19T11:12:29.395Z,5.10
2022-11-19T11:15:14.522Z,5.23
2022-11-19T11:17:42.593Z,5.44
2022-11-19T11:20:18.770Z,5.72
2022-11-19T11:22:51.100Z,6.17
2022-11-19T11:25:25.108Z,6.64
2022-11-19T11:28:20.144Z,6.92
2022-11-19T11:30:55.132Z,6.73
2022-11-19T11:33:24.838Z,6.63
2022-11-19T11:35:53.468Z,6.70
2022-11-19T11:38:24.349Z,6.84
2022-11-19T11:44:06.573Z,7.28
2022-11-19T11:46:48.353Z,7.22
2022-11-19T11:49:35.247Z,7.13
2022-11-19T11:52:20.818Z,7.17
2022-11-19T11:55:14.658Z,7.21
2022-11-19T11:57:58.211Z,7.31
2022-11-19T12:00:41.195Z,7.38
2022-11-19T12:03:11.319Z,7.30
2022-11-19T12:06:02.294Z,7.22
2022-11-19T12:08:53.760Z,7.24
2022-11-19T12:11:56.388Z,7.32
2022-11-19T12:15:00.247Z,7.46
2022-11-19T12:17:57.675Z,7.48
2022-11-19T12:20:52.080Z,8.07
2022-11-19T12:23:55.936Z,9.07
2022-11-19T12:26:59.866Z,9.79
2022-11-19T12:29:54.276Z,10.09
2022-11-19T12:33:20.848Z,10.22
2022-11-19T12:36:28.828Z,10.00
2022-11-19T12:39:40.344Z,9.66
2022-11-19T12:42:59.857Z,9.69
2022-11-19T12:46:02.529Z,9.90
2022-11-19T12:48:48.436Z,10.19
2022-11-19T12:51:45.094Z,10.37
2022-11-19T12:54:27.873Z,10.54
2022-11-19T12:57:45.122Z,10.87
2022-11-19T13:00:15.843Z,11.32
2022-11-19T13:02:54.470Z,11.56
2022-11-19T13:05:45.373Z,11.42
2022-11-19T13:08:32.729Z,10.90
2022-11-19T13:11:28.787Z,10.37
2022-11-19T13:14:01.072Z,10.18
2022-11-19T13:16:30.852Z,10.11
2022-11-19T13:19:32.783Z,10.20
2022-11-19T13:22:19.059Z,10.31
2022-11-19T13:24:59.032Z,10.42
2022-11-19T13:27:29.124Z,10.62
2022-11-19T13:30:16.736Z,10.81
2022-11-19T13:33:11.736Z,10.81
2022-11-19T13:36:03.212Z,9.99
2022-11-19T13:39:03.323Z,9.62
2022-11-19T13:42:01.468Z,9.61
2022-11-19T13:44:43.545Z,9.30
2022-11-19T13:47:23.927Z,8.72
2022-11-19T13:50:01.374Z,8.04
2022-11-19T13:53:01.483Z,7.63
2022-11-19T13:55:28.360Z,7.08
2022-11-19T13:57:57.210Z,6.61
2022-11-19T14:00:27.773Z,6.35
2022-11-19T14:03:29.337Z,6.21
2022-11-19T14:06:11.317Z,6.07
2022-11-19T14:09:32.347Z,6.13
2022-11-19T14:12:31.895Z,6.37
2022-11-19T14:15:42.400Z,6.65
2022-11-19T14:18:41.980Z,6.93
2022-11-19T14:21:47.471Z,7.23
2022-11-19T14:24:53.539Z,7.32
2022-11-19T14:27:27.267Z,7.33
2022-11-19T14:30:03.019Z,7.38
2022-11-19T14:32:46.369Z,7.33
2022-11-19T14:35:26.215Z,7.33
2022-11-19T14:38:19.450Z,7.30
2022-11-19T14:40:47.343Z,7.20
2022-11-19T14:43:36.449Z,7.12
2022-11-19T14:46:04.311Z,7.05
2022-11-19T14:48:40.169Z,6.99
2022-11-19T14:51:17.816Z,6.89
2022-11-19T14:54:15.021Z,6.70
2022-11-19T14:56:47.662Z,6.52
2022-11-19T14:59:14.492Z,6.36
2022-11-19T15:02:09.997Z,6.13
2022-11-19T15:05:01.040Z,5.82
2022-11-19T15:07:38.825Z,5.54
2022-11-19T15:10:15.064Z,5.39
2022-11-19T15:12:45.307Z,5.24
2022-11-19T15:15:22.342Z,5.10
2022-11-19T15:18:34.373Z,4.96
2022-11-19T15:21:41.789Z,4.91
2022-11-19T15:24:29.677Z,4.79
2022-11-19T15:27:17.556Z,4.65
2022-11-19T15:30:44.237Z,4.49
2022-11-19T15:33:37.300Z,4.33
2022-11-19T15:36:31.971Z,4.16
2022-11-19T15:39:24.921Z,4.08
2022-11-19T15:42:02.368Z,4.02
2022-11-19T15:44:59.384Z,3.92
2022-11-19T15:47:34.318Z,3.79
2022-11-19T15:50:03.163Z,3.67
2022-11-19T15:52:32.031Z,3.58
2022-11-19T15:55:19.505Z,3.49
2022-11-19T15:57:51.241Z,3.39
2022-11-19T16:00:23.169Z,3.29
2022-11-19T16:02:52.440Z,3.20
2022-11-19T16:05:26.631Z,3.16
2022-11-19T16:07:54.390Z,3.11
2022-11-19T16:10:34.009Z,3.10
2022-11-19T16:13:22.985Z,3.04
2022-11-19T16:16:12.091Z,2.93
2022-11-19T16:18:47.369Z,2.83
2022-11-19T16:21:38.046Z,2.79
2022-11-19T16:24:31.999Z,2.69
2022-11-19T16:27:00.140Z,2.62
2022-11-19T16:29:27.594Z,2.58
2022-11-19T16:31:59.609Z,2.50
2022-11-19T16:34:31.333Z,2.43
2022-11-19T16:36:59.172Z,2.36
2022-11-19T16:39:31.482Z,2.33
2022-11-19T16:42:22.389Z,2.25
2022-11-19T16:44:54.782Z,2.21
2022-11-19T16:47:30.760Z,2.18
2022-11-19T16:50:00.849Z,2.17
2022-11-19T16:52:40.626Z,2.21
2022-11-19T16:55:19.685Z,2.17
2022-11-19T16:57:49.147Z,2.11
2022-11-19T17:00:25.631Z,2.06
2022-11-19T17:02:52.641Z,1.96
2022-11-19T17:05:24.661Z,1.87
2022-11-19T17:08:12.741Z,1.72
2022-11-19T17:10:39.825Z,1.61
2022-11-19T17:13:19.188Z,1.57
2022-11-19T17:15:48.404Z,1.50
2022-11-19T17:18:33.079Z,1.42
2022-11-19T17:21:08.296Z,1.35
2022-11-19T17:23:47.159Z,1.30
2022-11-19T17:26:22.276Z,1.33
2022-11-19T17:28:54.027Z,1.34
2022-11-19T17:31:26.026Z,1.31
2022-11-19T17:34:04.996Z,1.29
2022-11-19T17:36:31.965Z,1.24
2022-11-19T17:38:59.412Z,1.20
2022-11-19T17:41:47.715Z,1.22
2022-11-19T17:44:36.217Z,1.21
2022-11-19T17:47:22.874Z,1.16
2022-11-19T17:49:50.655Z,1.10
2022-11-19T17:52:30.226Z,1.07
2022-11-19T17:55:26.814Z,0.99
2022-11-19T17:57:53.810Z,0.90
2022-11-19T18:00:20.834Z,0.86
2022-11-19T18:02:48.745Z,0.84
2022-11-19T18:05:21.076Z,0.79
2022-11-19T18:07:48.047Z,0.77
2022-11-19T18:10:15.024Z,0.71
2022-11-19T18:12:42.060Z,0.62
2022-11-19T18:15:17.851Z,0.62
2022-11-19T18:17:45.364Z,0.64
2022-11-19T18:20:13.197Z,0.64
2022-11-19T18:22:40.855Z,0.60
2022-11-19T18:25:20.225Z,0.49
2022-11-19T18:27:47.202Z,0.40
2022-11-19T18:30:15.128Z,0.40
2022-11-19T18:32:42.509Z,0.40
2022-11-19T18:35:19.174Z,0.45
2022-11-19T18:37:46.635Z,0.40
2022-11-19T18:40:15.391Z,0.32
2022-11-19T18:43:03.081Z,0.30
2022-11-19T18:45:30.262Z,0.24
2022-11-19T18:47:57.528Z,0.25
2022-11-19T18:50:29.589Z,0.23
2022-11-19T18:52:57.230Z,0.20
2022-11-19T18:55:24.420Z,0.06
2022-11-19T18:57:51.750Z,-0.01
2022-11-19T19:00:18.878Z,-0.02
2022-11-19T19:02:45.908Z,-0.05
2022-11-19T19:05:12.817Z,-0.08
2022-11-19T19:07:39.877Z,-0.12
2022-11-19T19:10:07.407Z,-0.13
2022-11-19T19:12:34.375Z,-0.15
2022-11-19T19:15:01.315Z,-0.19
2022-11-19T19:17:28.365Z,-0.21
2022-11-19T19:19:55.258Z,-0.24
2022-11-19T19:22:22.638Z,-0.26
2022-11-19T19:24:53.840Z,-0.27
2022-11-19T19:27:23.884Z,-0.28
2022-11-19T19:29:50.832Z,-0.28
2022-11-19T19:32:17.785Z,-0.27
2022-11-19T19:34:44.687Z,-0.28
2022-11-19T19:37:11.782Z,-0.28
2022-11-19T19:39:38.730Z,-0.32
2022-11-19T19:42:05.887Z,-0.35
2022-11-19T19:44:32.934Z,-0.40
2022-11-19T19:47:00.444Z,-0.44
2022-11-19T19:49:27.455Z,-0.51
2022-11-19T19:51:54.646Z,-0.68
2022-11-19T19:54:21.581Z,-0.72
2022-11-19T19:56:48.790Z,0.16
2022-11-19T19:59:16.028Z,0.84
2022-11-19T20:01:47.380Z,0.88
2022-11-19T20:04:14.641Z,0.62
2022-11-19T20:06:46.879Z,0.36
2022-11-19T20:09:14.504Z,0.10
2022-11-19T20:11:41.539Z,-0.07
2022-11-19T20:14:09.636Z,-0.25
2022-11-19T20:16:40.251Z,-0.35
2022-11-19T20:19:08.802Z,-0.46
2022-11-19T20:21:36.517Z,-0.59
2022-11-19T20:24:11.492Z,-0.66
2022-11-19T20:26:40.449Z,-0.68
2022-11-19T20:29:07.474Z,-0.76
2022-11-19T20:31:35.098Z,-0.82
2022-11-19T20:34:04.813Z,-0.87
2022-11-19T20:36:34.669Z,-0.91
2022-11-19T20:39:02.079Z,-0.93
2022-11-19T20:41:47.687Z,-0.92
2022-11-19T20:44:20.770Z,-0.99
2022-11-19T20:46:52.081Z,-1.05
2022-11-19T20:49:21.723Z,-1.18
2022-11-19T20:51:49.427Z,-1.20
2022-11-19T20:54:16.492Z,-1.22
2022-11-19T20:56:43.570Z,-1.21
2022-11-19T20:59:12.344Z,-1.15
2022-11-19T21:01:39.826Z,-1.13
2022-11-19T21:04:07.089Z,-1.17
2022-11-19T21:06:35.072Z,-1.17
2022-11-19T21:09:02.129Z,-1.25
2022-11-19T21:11:29.158Z,-1.32
2022-11-19T21:13:56.505Z,-1.41
2022-11-19T21:16:25.714Z,-1.52
2022-11-19T21:18:53.130Z,-1.56
2022-11-19T21:21:22.294Z,-1.56
2022-11-19T21:23:49.445Z,-1.57
2022-11-19T21:26:22.976Z,-1.58
2022-11-19T21:28:53.428Z,-1.55
2022-11-19T21:31:37.964Z,-1.52
2022-11-19T21:34:15.336Z,-1.52
2022-11-19T21:36:44.174Z,-1.51
2022-11-19T21:39:12.095Z,-1.58
2022-11-19T21:41:39.271Z,-1.66
2022-11-19T21:44:06.543Z,-1.75
2022-11-19T21:46:34.133Z,-1.80
2022-11-19T21:49:01.492Z,-1.83
2022-11-19T21:51:28.868Z,-1.83
2022-11-19T21:53:57.054Z,-1.83
2022-11-19T21:56:25.078Z,-1.82
2022-11-19T21:58:52.247Z,-1.83
2022-11-19T22:01:19.453Z,-1.84
2022-11-19T22:03:46.615Z,-1.93
2022-11-19T22:06:13.709Z,-1.96
2022-11-19T22:08:42.218Z,-1.98
2022-11-19T22:11:29.344Z,-1.95
2022-11-19T22:14:05.655Z,-0.98
2022-11-19T22:16:39.469Z,-0.09
2022-11-19T22:19:06.969Z,-0.03
2022-11-19T22:21:34.934Z,-0.21
2022-11-19T22:24:02.862Z,-0.47
2022-11-19T22:26:29.898Z,-0.78
2022-11-19T22:28:57.080Z,-1.07
2022-11-19T22:31:25.310Z,-1.33
2022-11-19T22:33:53.667Z,-1.48
2022-11-19T22:36:22.068Z,-1.56
2022-11-19T22:38:50.638Z,-1.64
2022-11-19T22:41:20.547Z,-1.73
2022-11-19T22:43:47.566Z,-1.84
2022-11-19T22:46:15.290Z,-1.88
2022-11-19T22:48:42.392Z,-1.91
2022-11-19T22:51:21.139Z,-1.97
2022-11-19T22:53:50.164Z,-2.05
2022-11-19T22:56:21.278Z,-2.12
2022-11-19T22:58:49.905Z,-2.22
2022-11-19T23:01:25.735Z,-2.30
2022-11-19T23:03:53.887Z,-2.36
2022-11-19T23:06:21.477Z,-2.39
2022-11-19T23:08:48.640Z,-2.40
2022-11-19T23:11:38.243Z,-2.34
2022-11-19T23:14:07.783Z,-2.36
2022-11-19T23:16:36.839Z,-2.33
2022-11-19T23:19:05.061Z,-2.32
2022-11-19T23:21:32.257Z,-2.27
2022-11-19T23:24:02.869Z,-2.29
2022-11-19T23:26:31.836Z,-2.27
2022-11-19T23:28:59.228Z,-2.30
2022-11-19T23:31:29.783Z,-2.25
2022-11-19T23:33:59.505Z,-2.25
2022-11-19T23:36:33.509Z,-2.27
2022-11-19T23:39:01.072Z,-2.32
2022-11-19T23:41:28.608Z,-2.30
2022-11-19T23:43:56.288Z,-2.33
2022-11-19T23:46:29.342Z,-2.30
2022-11-19T23:48:58.191Z,-2.38
2022-11-19T23:51:35.204Z,-2.37
2022-11-19T23:54:02.991Z,-2.38
2022-11-19T23:56:32.057Z,-2.38
2022-11-19T23:59:01.697Z,-2.45
